Time;durP1;ratioP1;P1;durP2;ratioP2;P2;SDS_P1;SDS_P2;PMS_P1;PMS_P2;Temp;Humidity;BMP_temperature;BMP_pressure;BME280_temperature;BME280_humidity;BME280_pressure;Samples;Min_cycle;Max_cycle;Signal;HPM_P1;HPM_P2
2023/05/02 00:02:12;;;;;;;17.77;5.70;;;10.30;99.90;;;;;;5035043;28;20104;-62
2023/05/02 00:04:38;;;;;;;15.10;5.27;;;10.30;99.90;;;;;;5036900;28;20057;-63
2023/05/02 00:07:04;;;;;;;15.17;6.53;;;10.30;99.90;;;;;;5025466;28;20030;-63
2023/05/02 00:09:30;;;;;;;22.48;5.32;;;10.30;99.90;;;;;;5031283;28;20048;-62
2023/05/02 00:12:11;;;;;;;18.10;6.77;;;10.30;99.90;;;;;;5031352;28;20133;-62
2023/05/02 00:14:36;;;;;;;11.07;4.72;;;10.30;99.90;;;;;;5035453;28;20041;-62
2023/05/02 00:17:02;;;;;;;6.50;4.57;;;10.30;99.90;;;;;;5026790;28;20064;-62
2023/05/02 00:19:27;;;;;;;7.83;4.50;;;10.20;99.90;;;;;;5036523;28;20037;-62
2023/05/02 00:21:53;;;;;;;8.17;4.60;;;10.20;99.90;;;;;;5027877;28;20037;-63
2023/05/02 00:24:19;;;;;;;5.63;3.27;;;10.20;99.90;;;;;;5020512;28;20034;-63
2023/05/02 00:26:45;;;;;;;9.47;3.97;;;10.20;99.90;;;;;;5031273;28;20129;-62
2023/05/02 00:29:11;;;;;;;12.97;4.53;;;10.20;99.90;;;;;;5037604;28;20091;-64
2023/05/02 00:31:39;;;;;;;6.00;3.27;;;10.20;99.90;;;;;;5031518;28;20034;-62
2023/05/02 00:34:05;;;;;;;12.48;2.78;;;10.10;99.90;;;;;;5025035;28;20046;-62
2023/05/02 00:36:31;;;;;;;15.53;5.20;;;10.00;99.90;;;;;;5034887;28;20079;-62
2023/05/02 00:38:56;;;;;;;12.57;4.00;;;10.10;99.90;;;;;;5022901;28;20482;-62
2023/05/02 00:41:22;;;;;;;14.37;4.37;;;10.10;99.90;;;;;;5034846;28;20267;-62
2023/05/02 00:43:48;;;;;;;10.33;4.00;;;10.00;99.90;;;;;;5036523;28;20029;-62
2023/05/02 00:46:14;;;;;;;8.73;2.63;;;10.00;99.90;;;;;;5037422;28;20021;-79
2023/05/02 00:48:40;;;;;;;3.97;2.73;;;10.00;99.90;;;;;;5037715;28;20108;-62
2023/05/02 00:51:07;;;;;;;5.50;2.10;;;9.90;99.90;;;;;;5036643;28;20632;-62
2023/05/02 00:53:34;;;;;;;4.28;2.85;;;9.80;99.90;;;;;;5035260;28;20022;-61
2023/05/02 00:56:00;;;;;;;;;;;9.80;99.90;;;;;;5031814;28;20017;-62
2023/05/02 00:58:27;;;;;;;13.00;3.40;;;9.80;99.90;;;;;;5037208;28;20216;-62
2023/05/02 01:00:56;;;;;;;;;;;9.80;99.90;;;;;;5036959;28;20034;-61
2023/05/02 01:03:37;;;;;;;5.43;2.78;;;9.80;99.90;;;;;;5036544;28;19931;-62
2023/05/02 01:06:23;;;;;;;8.50;2.92;;;9.80;99.90;;;;;;5036623;28;20025;-62
2023/05/02 01:09:18;;;;;;;8.73;1.80;;;9.80;99.90;;;;;;5035229;28;20033;-62
2023/05/02 01:12:27;;;;;;;8.90;1.98;;;9.80;99.90;;;;;;5024453;28;20029;-62
2023/05/02 01:14:56;;;;;;;10.00;2.55;;;9.70;99.90;;;;;;5035489;28;20026;-62
2023/05/02 01:17:26;;;;;;;6.97;1.77;;;9.60;99.90;;;;;;5037096;28;20022;-62
2023/05/02 01:19:58;;;;;;;4.20;1.52;;;9.60;99.90;;;;;;5031104;28;20362;-61
2023/05/02 01:22:26;;;;;;;10.70;2.72;;;9.50;99.90;;;;;;5019175;28;20506;-62
2023/05/02 01:25:19;;;;;;;6.38;2.55;;;9.50;99.90;;;;;;5031242;28;20424;-62
2023/05/02 01:28:13;;;;;;;9.00;2.15;;;9.50;99.90;;;;;;5036240;28;20388;-62
2023/05/02 01:30:42;;;;;;;4.47;1.05;;;9.40;99.90;;;;;;5023844;28;20072;-62
2023/05/02 01:33:11;;;;;;;6.82;1.30;;;9.40;99.90;;;;;;5025536;28;20033;-74
2023/05/02 01:35:37;;;;;;;4.22;1.50;;;9.30;99.90;;;;;;5032542;28;20087;-61
2023/05/02 01:38:06;;;;;;;6.60;1.70;;;9.30;99.90;;;;;;5031996;28;20117;-62
2023/05/02 01:40:33;;;;;;;6.05;1.42;;;9.30;99.90;;;;;;5028331;28;20057;-62
2023/05/02 01:43:03;;;;;;;7.00;2.00;;;9.30;99.90;;;;;;5029029;28;20060;-62
2023/05/02 01:45:30;;;;;;;5.07;1.70;;;9.30;99.90;;;;;;5029418;28;20033;-62
2023/05/02 01:47:57;;;;;;;6.13;1.95;;;9.20;99.90;;;;;;5030293;28;20108;-62
2023/05/02 01:50:24;;;;;;;2.53;1.73;;;9.20;99.90;;;;;;5030817;28;20030;-62
2023/05/02 01:52:50;;;;;;;;;;;9.10;99.90;;;;;;5029722;28;20030;-61
2023/05/02 01:55:17;;;;;;;3.17;1.13;;;9.20;99.90;;;;;;5028239;28;20000;-62
2023/05/02 01:57:45;;;;;;;6.00;1.00;;;9.20;99.90;;;;;;5030366;28;20087;-77
2023/05/02 02:00:12;;;;;;;4.00;1.13;;;9.20;99.90;;;;;;5030290;28;20455;-62
2023/05/02 02:02:41;;;;;;;7.63;1.60;;;9.20;99.90;;;;;;5026895;28;20044;-63
2023/05/02 02:05:08;;;;;;;4.35;1.80;;;9.20;99.90;;;;;;5035262;28;20040;-62
2023/05/02 02:07:33;;;;;;;;;;;9.20;99.90;;;;;;5036233;28;20439;-62
2023/05/02 02:10:00;;;;;;;5.30;1.80;;;9.10;99.90;;;;;;5029974;28;19971;-62
2023/05/02 02:12:29;;;;;;;9.20;1.80;;;9.10;99.90;;;;;;5031217;28;20090;-62
2023/05/02 02:15:01;;;;;;;5.50;1.60;;;9.10;99.90;;;;;;5029975;28;20017;-62
2023/05/02 02:17:42;;;;;;;9.40;1.77;;;9.10;99.90;;;;;;5033789;28;20021;-62
2023/05/02 02:20:10;;;;;;;7.45;1.83;;;9.10;99.90;;;;;;5032485;28;20033;-78
2023/05/02 02:22:42;;;;;;;7.60;1.45;;;9.10;99.90;;;;;;5028085;28;20030;-62
2023/05/02 02:25:11;;;;;;;6.00;1.75;;;9.10;99.90;;;;;;5023503;28;20033;-62
2023/05/02 02:27:38;;;;;;;7.43;1.48;;;9.10;99.90;;;;;;5016819;28;20425;-76
2023/05/02 02:30:04;;;;;;;9.20;1.75;;;9.10;99.90;;;;;;5017553;28;20081;-62
2023/05/02 02:32:30;;;;;;;12.00;1.75;;;9.10;99.90;;;;;;5018622;28;20411;-62
2023/05/02 02:34:56;;;;;;;7.97;1.43;;;9.10;99.90;;;;;;5022731;28;20108;-83
2023/05/02 02:37:34;;;;;;;5.03;1.40;;;9.10;99.90;;;;;;5016246;28;20030;-62
2023/05/02 02:40:07;;;;;;;9.25;1.52;;;9.10;99.90;;;;;;5020916;28;20029;-62
2023/05/02 02:42:38;;;;;;;3.85;1.55;;;9.00;99.90;;;;;;5020054;28;20057;-62
2023/05/02 02:45:14;;;;;;;5.30;1.60;;;9.00;99.90;;;;;;5028441;28;20164;-62
2023/05/02 02:47:52;;;;;;;4.20;1.05;;;9.00;99.90;;;;;;5030095;28;20467;-62
2023/05/02 02:50:30;;;;;;;9.77;1.50;;;9.00;99.90;;;;;;5026742;28;20068;-62
2023/05/02 02:53:02;;;;;;;6.43;1.73;;;9.00;99.90;;;;;;5028027;28;20026;-61
2023/05/02 02:55:51;;;;;;;8.07;1.77;;;9.00;99.90;;;;;;5033281;28;20132;-61
2023/05/02 02:59:02;;;;;;;4.35;1.92;;;9.00;99.90;;;;;;5035148;28;20017;-62
2023/05/02 03:01:31;;;;;;;7.53;1.67;;;9.00;99.90;;;;;;5030502;28;20038;-77
2023/05/02 03:03:57;;;;;;;5.55;1.98;;;9.00;99.90;;;;;;5034591;28;20021;-62
2023/05/02 03:06:23;;;;;;;12.60;2.10;;;8.90;99.90;;;;;;5034273;28;20033;-62
2023/05/02 03:08:49;;;;;;;12.65;1.83;;;8.90;99.90;;;;;;5034889;28;20420;-64
2023/05/02 03:11:15;;;;;;;7.33;1.57;;;8.80;99.90;;;;;;5021057;28;20359;-62
2023/05/02 03:13:41;;;;;;;11.80;1.70;;;8.80;99.90;;;;;;5034475;28;20029;-62
2023/05/02 03:16:29;;;;;;;7.10;1.60;;;8.80;99.90;;;;;;5028011;28;20021;-62
2023/05/02 03:18:55;;;;;;;5.70;1.45;;;8.80;99.90;;;;;;5033059;28;20459;-61
2023/05/02 03:21:20;;;;;;;5.33;1.63;;;8.70;99.90;;;;;;5033108;28;20025;-62
2023/05/02 03:23:46;;;;;;;8.77;1.70;;;8.60;99.90;;;;;;5033140;28;20071;-78
2023/05/02 03:26:12;;;;;;;5.37;1.57;;;8.60;99.90;;;;;;5027020;28;20049;-62
2023/05/02 03:28:38;;;;;;;12.00;1.52;;;8.50;99.90;;;;;;5027994;28;20032;-62
2023/05/02 03:31:03;;;;;;;6.33;2.03;;;8.50;99.90;;;;;;5026388;28;20324;-62
2023/05/02 03:33:29;;;;;;;5.97;1.37;;;8.40;99.90;;;;;;5019929;28;20029;-62
2023/05/02 03:35:55;;;;;;;7.63;2.27;;;8.30;99.90;;;;;;5032256;28;20028;-62
2023/05/02 03:38:20;;;;;;;7.33;2.60;;;8.40;99.90;;;;;;5025092;28;20446;-62
2023/05/02 03:40:46;;;;;;;11.17;2.03;;;8.40;99.90;;;;;;5032594;28;20384;-62
2023/05/02 03:43:11;;;;;;;16.93;2.80;;;8.40;99.90;;;;;;5019346;28;20447;-62
2023/05/02 03:45:37;;;;;;;3.63;1.63;;;8.40;99.90;;;;;;5021079;28;20029;-62
2023/05/02 03:48:03;;;;;;;6.70;2.30;;;8.40;99.90;;;;;;5017050;28;20045;-62
2023/05/02 03:50:29;;;;;;;6.77;1.83;;;8.40;99.90;;;;;;5030988;28;20029;-70
2023/05/02 03:52:54;;;;;;;10.80;2.50;;;8.50;99.90;;;;;;5030744;28;20029;-62
2023/05/02 03:55:20;;;;;;;7.50;1.97;;;8.50;99.90;;;;;;5032975;28;20064;-62
2023/05/02 03:57:46;;;;;;;3.40;1.60;;;8.50;99.90;;;;;;5025494;28;20033;-62
2023/05/02 04:00:12;;;;;;;6.40;1.63;;;8.40;99.90;;;;;;5014598;28;20116;-62
2023/05/02 04:02:37;;;;;;;5.67;1.83;;;8.50;99.90;;;;;;5026030;28;20025;-62
2023/05/02 04:05:03;;;;;;;8.57;1.90;;;8.50;99.90;;;;;;5022703;28;20497;-62
2023/05/02 04:07:29;;;;;;;7.30;1.87;;;8.50;99.90;;;;;;5026167;28;20061;-63
2023/05/02 04:09:55;;;;;;;9.67;1.90;;;8.50;99.90;;;;;;5015568;28;20373;-62
2023/05/02 04:12:21;;;;;;;10.30;1.97;;;8.50;99.90;;;;;;5020116;28;20021;-61
2023/05/02 04:14:46;;;;;;;5.70;1.83;;;8.40;99.90;;;;;;5017638;28;20412;-61
2023/05/02 04:17:14;;;;;;;9.10;2.33;;;8.40;99.90;;;;;;5020693;28;20018;-63
2023/05/02 04:19:40;;;;;;;6.43;1.92;;;8.40;99.90;;;;;;5025490;28;20089;-62
2023/05/02 04:22:05;;;;;;;4.60;1.70;;;8.40;99.90;;;;;;5023443;28;20029;-62
2023/05/02 04:24:31;;;;;;;14.17;2.50;;;8.40;99.90;;;;;;5016770;28;20528;-62
2023/05/02 04:26:57;;;;;;;10.53;1.83;;;8.50;99.90;;;;;;5022121;28;20108;-76
2023/05/02 04:29:23;;;;;;;7.80;1.87;;;8.50;99.90;;;;;;5028812;28;20045;-62
2023/05/02 04:31:50;;;;;;;7.85;2.42;;;8.50;99.90;;;;;;5013801;28;20306;-62
2023/05/02 04:34:16;;;;;;;8.18;2.53;;;8.60;99.90;;;;;;5021639;28;20029;-62
2023/05/02 04:36:44;;;;;;;5.60;1.57;;;8.60;99.90;;;;;;5027712;28;20101;-62
2023/05/02 04:39:10;;;;;;;12.55;2.50;;;8.50;99.90;;;;;;5026482;28;20021;-62
2023/05/02 04:41:35;;;;;;;15.07;3.47;;;8.60;99.90;;;;;;5031891;28;20088;-78
2023/05/02 04:44:01;;;;;;;7.43;1.17;;;8.50;99.90;;;;;;5025958;28;20032;-62
2023/05/02 04:46:27;;;;;;;12.57;2.67;;;8.60;99.90;;;;;;5029546;28;20044;-62
2023/05/02 04:48:53;;;;;;;12.53;1.87;;;8.60;99.90;;;;;;5035062;28;20033;-62
2023/05/02 04:51:18;;;;;;;12.47;2.03;;;8.60;99.90;;;;;;5036878;28;20060;-62
2023/05/02 04:53:44;;;;;;;10.03;3.20;;;8.60;99.90;;;;;;5028893;28;20072;-62
2023/05/02 04:56:10;;;;;;;7.03;2.30;;;8.60;99.90;;;;;;5035392;28;20423;-62
2023/05/02 04:58:36;;;;;;;4.83;1.70;;;8.60;99.90;;;;;;5032525;28;20094;-77
2023/05/02 05:01:01;;;;;;;1.63;1.03;;;8.60;99.90;;;;;;5036033;28;20360;-62
2023/05/02 05:03:31;;;;;;;9.37;1.47;;;8.60;99.90;;;;;;5036022;28;20029;-62
2023/05/02 05:05:57;;;;;;;12.60;2.05;;;8.60;99.90;;;;;;5033050;28;20032;-61
2023/05/02 05:08:23;;;;;;;7.40;1.20;;;8.60;99.90;;;;;;5034773;28;20034;-63
2023/05/02 05:10:49;;;;;;;9.80;1.90;;;8.60;99.90;;;;;;5033517;28;20037;-62
2023/05/02 05:13:15;;;;;;;6.63;1.80;;;8.60;99.90;;;;;;5032648;28;20029;-62
2023/05/02 05:15:41;;;;;;;9.23;1.20;;;8.60;99.90;;;;;;5029466;28;20025;-76
2023/05/02 05:18:06;;;;;;;3.63;0.77;;;8.60;99.90;;;;;;5033322;28;20021;-62
2023/05/02 05:20:32;;;;;;;8.37;1.90;;;8.70;99.90;;;;;;5026102;28;20104;-62
2023/05/02 05:22:58;;;;;;;3.93;0.97;;;8.60;99.90;;;;;;5029751;28;20026;-61
2023/05/02 05:25:27;;;;;;;6.10;1.23;;;8.70;99.90;;;;;;5032244;28;20025;-62
2023/05/02 05:27:54;;;;;;;3.60;1.27;;;8.80;99.90;;;;;;5033642;28;20037;-62
2023/05/02 05:30:20;;;;;;;6.78;1.55;;;8.80;99.90;;;;;;5035133;28;20132;-62
2023/05/02 05:32:46;;;;;;;6.73;1.20;;;8.80;99.90;;;;;;5031475;28;20105;-78
2023/05/02 05:35:12;;;;;;;9.33;1.30;;;8.80;99.90;;;;;;5034191;28;20312;-63
2023/05/02 05:37:38;;;;;;;4.87;1.70;;;8.80;99.90;;;;;;5032472;28;20076;-62
2023/05/02 05:40:09;;;;;;;1.27;1.17;;;8.80;99.90;;;;;;5034446;28;20034;-62
2023/05/02 05:42:35;;;;;;;4.43;1.00;;;8.80;99.90;;;;;;5030098;28;20035;-62
2023/05/02 05:45:00;;;;;;;0.63;0.63;;;8.90;99.90;;;;;;5034656;28;20320;-62
2023/05/02 05:47:27;;;;;;;6.37;1.37;;;8.80;99.90;;;;;;5034317;28;20033;-77
2023/05/02 05:49:53;;;;;;;;;;;8.90;99.90;;;;;;5032522;28;20026;-62
2023/05/02 05:52:19;;;;;;;6.15;0.90;;;8.80;99.90;;;;;;5032644;28;19921;-65
2023/05/02 05:54:45;;;;;;;7.33;1.33;;;8.70;99.90;;;;;;5032014;28;20092;-62
2023/05/02 05:57:11;;;;;;;2.87;0.73;;;8.80;99.90;;;;;;5032912;28;20412;-62
2023/05/02 05:59:36;;;;;;;1.43;1.03;;;8.90;99.90;;;;;;5032186;28;20367;-76
2023/05/02 06:02:03;;;;;;;1.23;0.47;;;8.90;99.90;;;;;;5030256;28;20049;-62
2023/05/02 06:04:28;;;;;;;7.33;1.63;;;8.90;99.90;;;;;;5030415;28;20033;-62
2023/05/02 06:06:54;;;;;;;1.00;0.53;;;8.90;99.90;;;;;;5035532;28;20263;-76
2023/05/02 06:09:20;;;;;;;5.03;1.23;;;8.80;99.90;;;;;;5027690;28;20021;-62
2023/05/02 06:11:46;;;;;;;4.13;1.00;;;8.70;99.90;;;;;;5035623;28;20025;-62
2023/05/02 06:14:11;;;;;;;4.33;1.40;;;8.50;99.90;;;;;;5029953;28;20022;-61
2023/05/02 06:16:37;;;;;;;5.27;1.80;;;8.40;99.90;;;;;;5041192;28;20403;-62
2023/05/02 06:19:03;;;;;;;10.97;2.83;;;8.30;99.90;;;;;;5036840;28;20038;-78
2023/05/02 06:21:28;;;;;;;8.23;2.00;;;8.30;99.90;;;;;;5029202;28;20329;-62
2023/05/02 06:23:54;;;;;;;7.17;1.30;;;8.30;99.90;;;;;;5034447;28;20037;-62
2023/05/02 06:26:20;;;;;;;3.60;1.60;;;8.30;99.90;;;;;;5025560;28;20408;-62
2023/05/02 06:28:46;;;;;;;11.50;1.85;;;8.30;99.90;;;;;;5032737;28;20017;-79
2023/05/02 06:31:11;;;;;;;0.37;0.37;;;8.30;99.90;;;;;;5028150;28;20034;-62
2023/05/02 06:33:37;;;;;;;4.63;1.20;;;8.40;99.90;;;;;;5029528;28;20124;-62
2023/05/02 06:36:03;;;;;;;2.23;0.57;;;8.40;99.90;;;;;;5034285;28;20037;-76
2023/05/02 06:38:29;;;;;;;1.20;0.83;;;8.40;99.90;;;;;;5044201;28;20040;-66
2023/05/02 06:40:59;;;;;;;4.57;1.20;;;8.50;99.90;;;;;;5030519;28;20033;-62
2023/05/02 06:43:25;;;;;;;1.42;0.60;;;8.60;99.90;;;;;;5031621;28;20044;-62
2023/05/02 06:45:57;;;;;;;3.97;0.60;;;8.70;99.90;;;;;;5029566;28;20480;-63
2023/05/02 06:48:23;;;;;;;4.90;1.05;;;8.70;99.90;;;;;;5031254;28;20041;-62
2023/05/02 06:50:50;;;;;;;5.50;1.10;;;8.70;99.90;;;;;;5029425;28;20052;-62
2023/05/02 06:53:16;;;;;;;2.47;1.02;;;8.80;99.90;;;;;;5037530;28;20025;-62
2023/05/02 06:55:43;;;;;;;0.90;0.67;;;8.80;99.90;;;;;;5032088;28;20021;-62
2023/05/02 06:58:09;;;;;;;;;;;8.80;99.90;;;;;;5024729;28;20167;-62
2023/05/02 07:00:34;;;;;;;1.17;0.90;;;9.00;99.90;;;;;;5026797;28;20372;-62
2023/05/02 07:03:00;;;;;;;5.23;1.00;;;9.00;99.90;;;;;;5028346;28;20075;-63
2023/05/02 07:05:26;;;;;;;2.13;0.77;;;9.00;99.90;;;;;;5033462;28;20091;-62
2023/05/02 07:07:51;;;;;;;8.70;1.03;;;9.10;99.90;;;;;;5033477;28;20017;-62
2023/05/02 07:10:26;;;;;;;0.57;0.43;;;9.10;99.90;;;;;;5027451;28;20053;-62
2023/05/02 07:12:53;;;;;;;9.10;1.65;;;9.00;99.90;;;;;;5027069;28;20120;-63
2023/05/02 07:15:19;;;;;;;5.17;1.23;;;8.90;99.90;;;;;;5039142;28;20113;-62
2023/05/02 07:17:46;;;;;;;6.00;1.77;;;9.00;99.90;;;;;;5027062;28;20057;-62
2023/05/02 07:20:12;;;;;;;3.15;0.70;;;9.00;99.90;;;;;;5030018;28;20436;-62
2023/05/02 07:22:38;;;;;;;3.13;0.80;;;9.00;99.90;;;;;;5029529;28;20069;-79
2023/05/02 07:25:04;;;;;;;3.53;1.00;;;9.00;99.90;;;;;;5021585;28;20040;-62
2023/05/02 07:27:29;;;;;;;3.17;1.20;;;9.00;99.90;;;;;;5035751;28;20034;-62
2023/05/02 07:29:55;;;;;;;6.70;1.00;;;9.20;99.90;;;;;;5023784;28;20038;-62
2023/05/02 07:32:21;;;;;;;7.47;0.80;;;9.20;99.90;;;;;;5027060;28;20103;-62
2023/05/02 07:34:47;;;;;;;0.90;0.70;;;9.20;99.90;;;;;;5029600;28;20328;-62
2023/05/02 07:37:13;;;;;;;2.33;1.10;;;9.10;99.90;;;;;;5021827;28;20104;-81
2023/05/02 07:39:38;;;;;;;6.20;2.40;;;9.00;99.90;;;;;;5023341;28;20115;-62
2023/05/02 07:42:05;;;;;;;2.70;0.97;;;9.00;99.90;;;;;;5032449;28;20552;-62
2023/05/02 07:44:32;;;;;;;2.95;0.57;;;9.00;99.90;;;;;;5032678;28;20108;-62
2023/05/02 07:46:57;;;;;;;;;;;9.00;99.90;;;;;;5031677;28;20040;-62
2023/05/02 07:49:23;;;;;;;3.80;1.20;;;9.00;99.90;;;;;;5027837;28;19913;-63
2023/05/02 07:51:49;;;;;;;1.60;0.80;;;9.00;99.90;;;;;;5021932;28;20117;-62
2023/05/02 07:54:19;;;;;;;1.93;0.87;;;9.20;99.90;;;;;;5034453;28;20017;-62
2023/05/02 07:56:45;;;;;;;6.88;0.98;;;9.40;99.90;;;;;;5031481;28;20152;-79
2023/05/02 07:59:10;;;;;;;4.40;1.55;;;9.50;99.90;;;;;;5016012;28;20021;-62
2023/05/02 08:01:37;;;;;;;2.60;0.80;;;9.60;99.90;;;;;;5029475;28;20494;-62
2023/05/02 08:04:03;;;;;;;1.83;0.95;;;9.40;99.90;;;;;;5032261;28;20113;-75
2023/05/02 08:06:29;;;;;;;5.87;1.23;;;9.60;99.90;;;;;;5029362;28;20060;-78
2023/05/02 08:08:55;;;;;;;4.60;0.88;;;9.70;99.90;;;;;;5033616;28;20032;-62
2023/05/02 08:11:24;;;;;;;1.50;0.82;;;10.00;99.90;;;;;;5027343;28;20043;-62
2023/05/02 08:13:50;;;;;;;2.42;0.73;;;10.20;99.90;;;;;;5031463;28;20324;-63
2023/05/02 08:16:16;;;;;;;3.05;0.80;;;10.00;99.90;;;;;;5032143;28;20422;-69
2023/05/02 08:18:41;;;;;;;2.63;0.90;;;9.90;99.90;;;;;;5033679;28;20033;-61
2023/05/02 08:21:07;;;;;;;6.90;0.90;;;9.80;99.90;;;;;;5036727;28;20025;-62
2023/05/02 08:23:33;;;;;;;4.90;0.93;;;9.90;99.90;;;;;;5037969;28;20038;-83
2023/05/02 08:25:58;;;;;;;10.50;1.07;;;10.10;99.90;;;;;;5031500;28;20041;-62
2023/05/02 08:28:24;;;;;;;11.87;2.00;;;10.10;99.90;;;;;;5020864;28;20132;-61
2023/05/02 08:30:50;;;;;;;5.83;1.53;;;10.10;99.90;;;;;;5035804;28;20057;-62
2023/05/02 08:33:16;;;;;;;1.27;1.20;;;10.30;99.90;;;;;;5038063;28;20401;-63
2023/05/02 08:35:41;;;;;;;3.73;0.97;;;10.40;99.90;;;;;;5033211;28;20108;-62
2023/05/02 08:38:07;;;;;;;7.93;1.60;;;10.40;99.90;;;;;;5030088;28;20030;-80
2023/05/02 08:40:36;;;;;;;5.33;1.80;;;10.30;99.90;;;;;;5034587;28;20040;-62
2023/05/02 08:43:06;;;;;;;3.92;1.17;;;10.30;99.90;;;;;;5031889;28;20032;-78
2023/05/02 08:45:38;;;;;;;1.88;1.02;;;10.40;99.90;;;;;;5037163;28;20026;-63
2023/05/02 08:48:10;;;;;;;2.15;1.00;;;10.90;99.90;;;;;;5037797;28;20036;-83
2023/05/02 08:50:42;;;;;;;4.30;1.33;;;10.80;99.90;;;;;;5023770;28;20080;-62
2023/05/02 08:53:09;;;;;;;8.77;1.52;;;11.10;99.90;;;;;;5030813;28;20124;-80
2023/05/02 08:55:38;;;;;;;4.47;1.55;;;11.10;99.90;;;;;;5023221;28;20455;-62
2023/05/02 08:58:05;;;;;;;5.97;1.50;;;11.00;99.90;;;;;;5028959;28;20026;-80
2023/05/02 09:00:32;;;;;;;3.60;1.17;;;10.90;99.90;;;;;;5029225;28;20057;-62
2023/05/02 09:03:21;;;;;;;3.25;1.15;;;10.50;99.90;;;;;;5032186;28;20041;-76
2023/05/02 09:05:56;;;;;;;2.22;0.90;;;10.30;99.90;;;;;;5018040;28;20029;-63
2023/05/02 09:08:23;;;;;;;6.57;1.75;;;10.10;99.90;;;;;;5028844;28;20412;-63
2023/05/02 09:10:49;;;;;;;;;;;10.50;99.90;;;;;;5032589;28;20423;-63
2023/05/02 09:13:31;;;;;;;;;;;10.90;99.90;;;;;;5031941;28;19967;-63
2023/05/02 09:16:01;;;;;;;4.85;1.48;;;11.00;99.90;;;;;;5021517;28;19910;-62
2023/05/02 09:18:38;;;;;;;2.97;1.83;;;11.10;99.90;;;;;;5036790;28;20044;-76
2023/05/02 09:21:07;;;;;;;4.30;1.00;;;11.20;99.90;;;;;;5024500;28;20076;-62
2023/05/02 09:23:44;;;;;;;41.15;2.70;;;11.10;99.90;;;;;;5028976;28;20037;-62
2023/05/02 09:26:18;;;;;;;10.88;1.48;;;11.00;99.90;;;;;;5026196;28;21928;-62
2023/05/02 09:28:48;;;;;;;4.93;1.30;;;10.90;99.90;;;;;;5033641;28;20053;-78
2023/05/02 09:31:22;;;;;;;3.72;1.05;;;10.50;99.90;;;;;;5031449;28;20079;-63
2023/05/02 09:33:48;;;;;;;5.63;1.30;;;10.30;99.90;;;;;;5026168;28;20029;-62
2023/05/02 09:36:16;;;;;;;9.02;1.65;;;10.20;99.90;;;;;;5035653;28;20017;-79
2023/05/02 09:38:43;;;;;;;5.10;1.13;;;10.00;99.90;;;;;;5029120;28;20022;-62
2023/05/02 09:41:09;;;;;;;5.28;1.25;;;10.00;99.90;;;;;;5028905;28;20083;-62
2023/05/02 09:43:35;;;;;;;2.65;1.02;;;10.30;99.90;;;;;;5030779;28;20037;-62
2023/05/02 09:46:09;;;;;;;0.80;0.80;;;10.40;99.90;;;;;;5032068;28;20313;-62
2023/05/02 09:48:55;;;;;;;2.47;1.48;;;10.30;99.90;;;;;;5029451;28;20057;-63
2023/05/02 09:51:22;;;;;;;3.40;1.10;;;10.20;99.90;;;;;;5030244;28;21699;-62
2023/05/02 09:53:48;;;;;;;6.32;1.40;;;10.30;99.90;;;;;;5028238;28;20037;-62
2023/05/02 09:56:14;;;;;;;4.37;1.30;;;10.50;99.90;;;;;;5031795;28;20428;-63
2023/05/02 09:58:40;;;;;;;4.57;1.92;;;10.70;99.90;;;;;;5032781;28;20017;-76
2023/05/02 10:01:06;;;;;;;2.57;1.30;;;11.00;99.90;;;;;;5034557;28;20168;-62
2023/05/02 10:03:36;;;;;;;6.37;1.30;;;11.30;99.90;;;;;;5025411;28;20030;-78
2023/05/02 10:06:05;;;;;;;2.03;0.93;;;11.10;99.90;;;;;;5028869;28;20025;-62
2023/05/02 10:08:32;;;;;;;4.47;1.30;;;10.80;99.90;;;;;;5035050;28;20017;-79
2023/05/02 10:10:59;;;;;;;10.25;1.70;;;10.20;99.90;;;;;;5030431;28;20049;-75
2023/05/02 10:13:30;;;;;;;7.72;1.98;;;10.30;99.90;;;;;;5033974;28;20047;-62
2023/05/02 10:16:06;;;;;;;6.75;1.67;;;10.50;99.90;;;;;;5027400;28;20033;-62
2023/05/02 10:19:02;;;;;;;4.60;1.80;;;10.70;99.90;;;;;;5029424;28;20431;-63
2023/05/02 10:21:28;;;;;;;7.22;1.80;;;10.60;99.90;;;;;;5028221;28;20081;-62
2023/05/02 10:23:54;;;;;;;5.55;1.45;;;10.60;99.90;;;;;;5028060;28;20030;-75
2023/05/02 10:26:22;;;;;;;3.77;1.20;;;10.60;99.90;;;;;;5031487;28;20023;-62
2023/05/02 10:28:48;;;;;;;6.35;1.80;;;10.70;99.90;;;;;;5037005;28;20036;-77
2023/05/02 10:31:15;;;;;;;2.72;1.40;;;10.80;99.90;;;;;;5034073;28;20025;-62
2023/05/02 10:33:40;;;;;;;12.88;1.92;;;10.70;99.90;;;;;;5032520;28;20336;-62
2023/05/02 10:36:08;;;;;;;4.50;1.30;;;10.90;99.90;;;;;;5033368;28;20025;-76
2023/05/02 10:38:36;;;;;;;9.18;1.48;;;11.30;99.90;;;;;;5037822;28;20029;-63
2023/05/02 10:41:14;;;;;;;4.47;1.50;;;11.40;99.90;;;;;;5030510;28;20033;-63
2023/05/02 10:43:44;;;;;;;9.77;1.85;;;11.30;99.90;;;;;;5035127;28;20113;-63
2023/05/02 10:46:40;;;;;;;2.40;1.58;;;11.30;99.90;;;;;;5038378;28;20103;-62
2023/05/02 10:49:10;;;;;;;6.80;1.80;;;11.10;99.90;;;;;;5064671;28;20035;-62
2023/05/02 10:51:38;;;;;;;8.23;1.85;;;10.80;99.90;;;;;;5061727;28;20043;-62
2023/05/02 10:54:19;;;;;;;9.15;1.92;;;11.00;99.90;;;;;;5066824;28;20040;-62
2023/05/02 10:57:04;;;;;;;6.20;1.90;;;11.10;99.90;;;;;;5050218;28;20040;-62
2023/05/02 10:59:33;;;;;;;10.88;1.80;;;11.40;99.90;;;;;;5066164;28;20064;-62
2023/05/02 11:02:00;;;;;;;3.10;1.20;;;11.70;99.90;;;;;;5067077;28;20020;-74
2023/05/02 11:05:05;;;;;;;11.98;2.15;;;11.30;99.90;;;;;;5066762;28;20036;-62
2023/05/02 11:07:32;;;;;;;5.97;1.95;;;11.60;99.90;;;;;;5044605;28;20455;-63
2023/05/02 11:10:16;;;;;;;3.63;1.58;;;11.90;99.90;;;;;;5058227;28;20446;-62
2023/05/02 11:12:55;;;;;;;4.38;1.42;;;11.70;99.90;;;;;;5056832;28;20063;-64
2023/05/02 11:15:26;;;;;;;7.63;1.85;;;11.50;99.90;;;;;;5065048;28;20059;-62
2023/05/02 11:18:02;;;;;;;6.78;1.90;;;11.30;99.90;;;;;;5062720;28;20601;-62
2023/05/02 11:20:28;;;;;;;6.18;1.60;;;11.30;99.90;;;;;;5053300;28;20037;-63
2023/05/02 11:23:20;;;;;;;2.85;1.20;;;11.50;99.90;;;;;;5067630;28;20028;-62
2023/05/02 11:25:54;;;;;;;5.00;1.02;;;11.80;99.90;;;;;;5045309;28;20455;-62
2023/05/02 11:28:46;;;;;;;7.43;2.15;;;11.60;99.90;;;;;;5033677;28;20026;-62
2023/05/02 11:31:27;;;;;;;7.95;2.05;;;11.60;99.90;;;;;;5031777;28;20117;-62
2023/05/02 11:33:58;;;;;;;5.07;2.03;;;11.00;99.90;;;;;;5028266;28;20033;-63
2023/05/02 11:36:34;;;;;;;12.65;2.38;;;10.90;99.90;;;;;;5029772;28;20025;-63
2023/05/02 11:39:01;;;;;;;6.78;2.47;;;11.00;99.90;;;;;;5033351;28;20025;-62
2023/05/02 11:41:43;;;;;;;4.93;1.95;;;11.00;99.90;;;;;;5033845;28;20447;-62
2023/05/02 11:44:09;;;;;;;7.88;1.85;;;11.10;99.90;;;;;;5031064;28;20087;-62
2023/05/02 11:46:39;;;;;;;9.97;2.07;;;11.20;99.90;;;;;;5031271;28;20033;-77
2023/05/02 11:49:06;;;;;;;9.80;3.05;;;11.60;99.90;;;;;;5036267;28;20653;-76
2023/05/02 11:51:32;;;;;;;5.45;1.92;;;11.60;99.90;;;;;;5037490;28;20328;-62
2023/05/02 11:53:58;;;;;;;8.83;2.13;;;11.60;99.90;;;;;;5034569;28;20037;-62
2023/05/02 11:56:25;;;;;;;9.77;2.17;;;11.70;99.90;;;;;;5032897;28;20267;-62
2023/05/02 11:59:02;;;;;;;4.22;1.80;;;11.90;99.90;;;;;;5033978;28;20424;-62
2023/05/02 12:01:28;;;;;;;11.85;1.80;;;11.80;99.90;;;;;;5038409;28;20132;-62
2023/05/02 12:04:06;;;;;;;7.00;2.28;;;11.90;99.90;;;;;;5036584;28;20436;-62
2023/05/02 12:06:32;;;;;;;7.57;1.85;;;12.10;99.90;;;;;;5034460;28;20029;-62
2023/05/02 12:09:08;;;;;;;9.27;2.47;;;12.30;99.90;;;;;;5026361;28;20056;-63
2023/05/02 12:11:36;;;;;;;5.50;1.70;;;12.60;99.90;;;;;;5028544;28;20322;-77
2023/05/02 12:14:03;;;;;;;3.80;1.52;;;12.40;99.90;;;;;;5035671;28;20029;-63
2023/05/02 12:16:29;;;;;;;5.03;2.15;;;12.10;99.90;;;;;;5028844;28;20021;-64
2023/05/02 12:18:58;;;;;;;6.85;1.88;;;12.40;99.90;;;;;;5030881;28;20052;-63
2023/05/02 12:21:25;;;;;;;2.53;1.30;;;12.20;99.90;;;;;;5031130;28;20038;-63
2023/05/02 12:23:51;;;;;;;5.45;1.83;;;12.20;99.90;;;;;;5032236;28;20355;-63
2023/05/02 12:26:29;;;;;;;4.35;1.55;;;12.40;99.90;;;;;;5037756;28;20017;-74
2023/05/02 12:28:56;;;;;;;10.05;2.00;;;12.20;99.90;;;;;;5031739;28;20061;-63
2023/05/02 12:31:22;;;;;;;5.65;2.10;;;12.30;99.90;;;;;;5033271;28;20022;-62
2023/05/02 12:33:49;;;;;;;10.87;1.90;;;11.90;99.90;;;;;;5033397;28;20032;-75
2023/05/02 12:36:16;;;;;;;6.30;1.70;;;11.80;99.90;;;;;;5037589;28;20105;-63
2023/05/02 12:38:50;;;;;;;;;;;11.70;99.90;;;;;;5033964;28;20040;-63
2023/05/02 12:41:16;;;;;;;10.00;2.15;;;12.00;99.90;;;;;;5036744;28;20414;-76
2023/05/02 12:43:47;;;;;;;6.43;2.03;;;11.90;99.90;;;;;;5035786;28;20116;-63
2023/05/02 12:46:13;;;;;;;6.53;2.20;;;12.20;99.90;;;;;;5037450;28;20040;-64
2023/05/02 12:48:39;;;;;;;8.47;2.07;;;12.60;99.90;;;;;;5034152;28;20180;-63
2023/05/02 12:51:04;;;;;;;5.07;2.00;;;12.50;99.90;;;;;;5033376;28;20029;-63
2023/05/02 12:53:37;;;;;;;5.57;1.73;;;12.30;99.90;;;;;;5029992;28;20467;-64
2023/05/02 12:56:03;;;;;;;5.10;1.90;;;12.30;99.90;;;;;;5026352;28;20045;-63
2023/05/02 12:58:29;;;;;;;8.68;1.60;;;12.30;99.90;;;;;;5033259;28;20053;-69
2023/05/02 13:00:55;;;;;;;4.70;1.90;;;12.40;99.90;;;;;;5030076;28;20115;-74
2023/05/02 13:03:21;;;;;;;6.70;1.73;;;12.50;99.90;;;;;;5036224;28;20033;-63